Terminal Aerodrome Forecast
Issued by NWS

Home | Current Version | Previous Version | Text Only | Print | Product List | Glossary On
Versions: 1 2 3 4 5 6 7 8 9 10 11 12 13 14 15 16
000
FTUS43 KICT 042328
TAFRSL
TAF
KRSL 042328Z 0500/0524 02007KT P6SM VCTS SCT040CB OVC100
      TEMPO 0500/0503 VRB15G25KT 3SM +TSRA OVC040CB
     FM050500 15010KT P6SM OVC035
     FM051500 17015G22KT P6SM SCT035 BKN100
     FM052200 17015G22KT P6SM VCTS SCT040CB BKN080=

USA.gov is the U.S. government's official web portal to all federal, state and local government web resources and services.